createdAt,value
2018-12-08T00:00:00.671Z,0
2018-12-08T00:01:08.732Z,0
2018-12-08T00:02:16.780Z,0
2018-12-08T00:03:24.857Z,0
2018-12-08T00:04:32.915Z,0
2018-12-08T00:05:40.936Z,0
2018-12-08T00:06:49.034Z,0
2018-12-08T00:07:57.095Z,0
2018-12-08T00:09:05.141Z,0
2018-12-08T00:10:13.211Z,0
2018-12-08T00:11:21.240Z,0
2018-12-08T00:12:29.471Z,0
2018-12-08T00:13:37.365Z,0
2018-12-08T00:14:45.432Z,0
2018-12-08T00:15:53.491Z,0
2018-12-08T00:17:01.515Z,0
2018-12-08T00:18:09.620Z,0
2018-12-08T00:19:17.674Z,0
2018-12-08T00:20:25.733Z,0
2018-12-08T00:21:33.787Z,0
2018-12-08T00:22:41.835Z,0
2018-12-08T00:23:49.900Z,0
2018-12-08T00:24:57.962Z,0
2018-12-08T00:26:06.011Z,0
2018-12-08T00:27:14.081Z,0
2018-12-08T00:28:22.147Z,0
2018-12-08T00:29:30.196Z,0
2018-12-08T00:30:38.249Z,0
2018-12-08T00:31:46.323Z,0
2018-12-08T00:32:54.368Z,0
2018-12-08T00:34:02.438Z,0
2018-12-08T00:35:10.492Z,0
2018-12-08T00:36:18.551Z,0
2018-12-08T00:37:26.612Z,0
2018-12-08T00:38:34.670Z,0
2018-12-08T00:39:42.722Z,0
2018-12-08T00:40:50.757Z,0
2018-12-08T00:41:58.924Z,0
2018-12-08T00:43:06.896Z,0
2018-12-08T00:44:14.952Z,0
2018-12-08T00:45:22.997Z,0
2018-12-08T00:46:31.048Z,0
2018-12-08T00:47:39.114Z,0
2018-12-08T00:48:47.167Z,0
2018-12-08T00:49:55.250Z,0
2018-12-08T00:51:03.294Z,0
2018-12-08T00:52:11.339Z,0
2018-12-08T00:53:19.425Z,0
2018-12-08T00:54:27.477Z,0
2018-12-08T00:55:35.537Z,0
2018-12-08T00:56:43.587Z,0
2018-12-08T00:57:51.620Z,0
2018-12-08T00:58:59.692Z,0
2018-12-08T01:00:07.761Z,0
2018-12-08T01:01:15.814Z,0
2018-12-08T01:02:23.874Z,0
2018-12-08T01:03:31.935Z,0
2018-12-08T01:04:39.998Z,0
2018-12-08T01:05:48.053Z,0
2018-12-08T01:06:56.863Z,0
2018-12-08T01:08:04.167Z,0
2018-12-08T01:09:12.232Z,0
2018-12-08T01:10:20.284Z,0
2018-12-08T01:11:28.348Z,0
2018-12-08T01:12:36.413Z,0
2018-12-08T01:13:44.463Z,0
2018-12-08T01:14:52.547Z,0
2018-12-08T01:16:00.577Z,0
2018-12-08T01:17:08.634Z,0
2018-12-08T01:18:16.696Z,0
2018-12-08T01:19:24.757Z,0
2018-12-08T01:20:32.805Z,0
2018-12-08T01:21:40.857Z,0
2018-12-08T01:22:48.925Z,0
2018-12-08T01:23:56.996Z,0
2018-12-08T01:25:05.049Z,0
2018-12-08T01:26:13.119Z,0
2018-12-08T01:27:21.141Z,0
2018-12-08T01:28:29.222Z,0
2018-12-08T01:29:37.280Z,0
2018-12-08T01:30:45.339Z,0
2018-12-08T01:31:53.393Z,0
2018-12-08T01:33:01.438Z,0
2018-12-08T01:34:09.513Z,0
2018-12-08T01:35:17.581Z,0
2018-12-08T01:36:25.622Z,0
2018-12-08T01:37:33.685Z,0
2018-12-08T01:38:41.762Z,0
2018-12-08T01:39:49.810Z,0
2018-12-08T01:40:57.864Z,0
2018-12-08T01:42:05.927Z,0
2018-12-08T01:43:13.978Z,0
2018-12-08T01:44:22.076Z,0
2018-12-08T01:45:30.099Z,0
2018-12-08T01:46:38.189Z,0
2018-12-08T01:47:46.207Z,0
2018-12-08T01:48:54.272Z,0
2018-12-08T01:50:02.439Z,0
2018-12-08T01:51:10.403Z,0
2018-12-08T01:52:18.448Z,0
2018-12-08T01:53:26.513Z,0
2018-12-08T01:54:34.570Z,0
2018-12-08T01:55:42.624Z,0
2018-12-08T01:56:50.674Z,0
2018-12-08T01:57:58.740Z,0
2018-12-08T01:59:06.800Z,0
2018-12-08T02:00:14.851Z,0
2018-12-08T02:01:22.996Z,0
2018-12-08T02:02:30.945Z,0
2018-12-08T02:03:39.061Z,0
2018-12-08T02:04:47.093Z,0
2018-12-08T02:05:55.146Z,0
2018-12-08T02:07:03.196Z,0
2018-12-08T02:08:11.239Z,0
2018-12-08T02:09:19.326Z,0
2018-12-08T02:10:27.383Z,0
2018-12-08T02:11:35.435Z,0
2018-12-08T02:12:43.491Z,0
2018-12-08T02:13:51.543Z,0
2018-12-08T02:14:59.613Z,0
2018-12-08T02:16:07.687Z,0
2018-12-08T02:17:15.736Z,0
2018-12-08T02:18:23.774Z,0
2018-12-08T02:19:31.842Z,0
2018-12-08T02:20:39.902Z,0
2018-12-08T02:21:47.965Z,0
2018-12-08T02:22:56.038Z,0
2018-12-08T02:24:04.074Z,0
2018-12-08T02:25:12.131Z,0
2018-12-08T02:26:20.190Z,0
2018-12-08T02:27:28.242Z,0
2018-12-08T02:28:36.313Z,0
2018-12-08T02:29:44.367Z,0
2018-12-08T02:30:52.516Z,0
2018-12-08T02:32:00.529Z,0
2018-12-08T02:33:08.541Z,0
2018-12-08T02:34:16.594Z,0
2018-12-08T02:35:24.661Z,0
2018-12-08T02:36:32.744Z,0
2018-12-08T02:37:40.754Z,0
2018-12-08T02:38:48.839Z,0
2018-12-08T02:39:56.888Z,0
2018-12-08T02:41:04.956Z,0
2018-12-08T02:42:13.015Z,0
2018-12-08T02:43:21.034Z,0
2018-12-08T02:44:29.114Z,0
2018-12-08T02:45:37.168Z,0
2018-12-08T02:46:45.249Z,0
2018-12-08T02:47:53.308Z,0
2018-12-08T02:49:01.330Z,0
2018-12-08T02:50:09.439Z,0
2018-12-08T02:51:17.471Z,0
2018-12-08T02:52:25.532Z,0
2018-12-08T02:53:33.589Z,0
2018-12-08T02:54:41.605Z,0
2018-12-08T02:55:49.707Z,0
2018-12-08T02:56:57.849Z,0
2018-12-08T02:58:06.141Z,0
2018-12-08T02:59:13.876Z,0
2018-12-08T03:00:22.103Z,0
2018-12-08T03:01:30.006Z,0
2018-12-08T03:02:38.050Z,0
2018-12-08T03:03:46.116Z,0
2018-12-08T03:04:54.159Z,0
2018-12-08T03:06:02.222Z,0
2018-12-08T03:07:10.281Z,0
2018-12-08T03:08:18.342Z,0
2018-12-08T03:09:26.395Z,0
2018-12-08T03:10:34.456Z,0
2018-12-08T03:11:42.515Z,0
2018-12-08T03:12:50.567Z,0
2018-12-08T03:13:58.617Z,0
2018-12-08T03:15:06.716Z,0
2018-12-08T03:16:14.744Z,0
2018-12-08T03:17:22.781Z,0
2018-12-08T03:18:30.834Z,0
2018-12-08T03:19:38.920Z,0
2018-12-08T03:20:46.982Z,0
2018-12-08T03:21:55.018Z,0
2018-12-08T03:23:03.092Z,0
2018-12-08T03:24:11.124Z,0
2018-12-08T03:25:19.192Z,0
2018-12-08T03:26:27.258Z,0
2018-12-08T03:27:35.317Z,0
2018-12-08T03:28:43.369Z,0
2018-12-08T03:29:51.425Z,0
2018-12-08T03:30:59.491Z,0
2018-12-08T03:32:07.541Z,0
2018-12-08T03:33:15.606Z,0
2018-12-08T03:34:23.744Z,0
2018-12-08T03:35:31.704Z,0
2018-12-08T03:36:39.771Z,0
2018-12-08T03:37:47.837Z,0
2018-12-08T03:38:55.892Z,0
2018-12-08T03:40:04.054Z,0
2018-12-08T03:41:12.004Z,0
2018-12-08T03:42:20.057Z,0
2018-12-08T03:43:28.121Z,0
2018-12-08T03:44:36.169Z,0
2018-12-08T03:45:44.238Z,0
2018-12-08T03:46:52.294Z,0
2018-12-08T03:48:00.386Z,0
2018-12-08T03:49:08.425Z,0
2018-12-08T03:50:16.465Z,0
2018-12-08T03:51:24.505Z,0
2018-12-08T03:52:32.576Z,0
2018-12-08T03:53:40.629Z,0
2018-12-08T03:54:48.696Z,0
2018-12-08T03:55:56.764Z,0
2018-12-08T03:57:04.807Z,0
2018-12-08T03:58:12.853Z,0
2018-12-08T03:59:20.899Z,0
2018-12-08T04:00:28.975Z,0
2018-12-08T04:01:37.020Z,0
2018-12-08T04:02:45.100Z,0
2018-12-08T04:03:53.153Z,0
2018-12-08T04:05:01.184Z,0
2018-12-08T04:06:09.295Z,0
2018-12-08T04:07:17.319Z,0
2018-12-08T04:08:25.386Z,0
2018-12-08T04:09:33.434Z,0
2018-12-08T04:10:41.468Z,0
2018-12-08T04:11:49.557Z,0
2018-12-08T04:12:57.596Z,0
2018-12-08T04:14:05.685Z,0
2018-12-08T04:15:13.729Z,0
2018-12-08T04:16:21.772Z,0
2018-12-08T04:17:29.830Z,0
2018-12-08T04:18:37.897Z,0
2018-12-08T04:19:45.960Z,0
2018-12-08T04:20:54.021Z,0
2018-12-08T04:22:02.096Z,0
2018-12-08T04:23:10.228Z,0
2018-12-08T04:24:18.184Z,0
2018-12-08T04:25:26.246Z,0
2018-12-08T04:26:34.295Z,0
2018-12-08T04:27:42.362Z,0
2018-12-08T04:28:50.417Z,0
2018-12-08T04:29:58.476Z,0
2018-12-08T04:31:06.530Z,0
2018-12-08T04:32:14.592Z,0
2018-12-08T04:33:22.651Z,0
2018-12-08T04:34:30.703Z,0
2018-12-08T04:35:38.764Z,0
2018-12-08T04:36:46.825Z,0
2018-12-08T04:37:54.871Z,0
2018-12-08T04:39:02.929Z,0
2018-12-08T04:40:10.961Z,0
2018-12-08T04:41:19.057Z,0
2018-12-08T04:42:27.117Z,0
2018-12-08T04:43:35.236Z,0
2018-12-08T04:44:43.230Z,0
2018-12-08T04:45:51.265Z,0
2018-12-08T04:46:59.348Z,0
2018-12-08T04:48:07.392Z,0
2018-12-08T04:49:15.456Z,0
2018-12-08T04:50:23.507Z,0
2018-12-08T04:51:31.551Z,0
2018-12-08T04:52:39.622Z,0
2018-12-08T04:53:47.684Z,0
2018-12-08T04:54:55.743Z,0
2018-12-08T04:56:03.797Z,0
2018-12-08T04:57:11.844Z,0
2018-12-08T04:58:19.929Z,0
2018-12-08T04:59:27.968Z,0
2018-12-08T05:00:36.026Z,0
2018-12-08T05:01:44.112Z,0
2018-12-08T05:02:52.149Z,0
2018-12-08T05:04:00.208Z,0
2018-12-08T05:05:08.289Z,0
2018-12-08T05:06:16.408Z,0
2018-12-08T05:07:24.379Z,0
2018-12-08T05:08:32.441Z,0
2018-12-08T05:09:40.492Z,0
2018-12-08T05:10:48.553Z,0
2018-12-08T05:11:56.613Z,0
2018-12-08T05:13:04.677Z,0
2018-12-08T05:14:12.729Z,0
2018-12-08T05:15:20.766Z,0
2018-12-08T05:16:28.850Z,0
2018-12-08T05:17:36.907Z,0
2018-12-08T05:18:44.958Z,0
2018-12-08T05:19:53.024Z,0
2018-12-08T05:21:01.042Z,0
2018-12-08T05:22:09.139Z,0
2018-12-08T05:23:17.215Z,0
2018-12-08T05:24:25.242Z,0
2018-12-08T05:25:33.317Z,0
2018-12-08T05:26:41.340Z,0
2018-12-08T05:27:49.427Z,0
2018-12-08T05:28:57.494Z,0
2018-12-08T05:30:05.610Z,0
2018-12-08T05:31:13.596Z,0
2018-12-08T05:32:21.642Z,0
2018-12-08T05:33:29.799Z,0
2018-12-08T05:34:37.761Z,0
2018-12-08T05:35:45.841Z,0
2018-12-08T05:36:53.896Z,0
2018-12-08T05:38:01.947Z,0
2018-12-08T05:39:10.011Z,0
2018-12-08T05:40:18.075Z,4
2018-12-08T05:41:26.126Z,0
2018-12-08T05:42:34.183Z,0
2018-12-08T05:43:42.250Z,0
2018-12-08T05:44:50.691Z,0
2018-12-08T05:45:58.365Z,0
2018-12-08T05:47:06.420Z,0
2018-12-08T05:48:14.484Z,0
2018-12-08T05:49:22.532Z,0
2018-12-08T05:50:30.580Z,0
2018-12-08T05:51:38.650Z,0
2018-12-08T05:52:46.706Z,0
2018-12-08T05:53:54.773Z,0
2018-12-08T05:55:02.811Z,0
2018-12-08T05:56:11.002Z,0
2018-12-08T05:57:18.937Z,0
2018-12-08T05:58:26.980Z,0
2018-12-08T05:59:35.072Z,0
2018-12-08T06:00:43.115Z,0
2018-12-08T06:01:51.143Z,0
2018-12-08T06:02:59.226Z,0
2018-12-08T06:04:07.280Z,0
2018-12-08T06:05:15.514Z,0
2018-12-08T06:06:23.389Z,0
2018-12-08T06:07:31.432Z,0
2018-12-08T06:08:39.520Z,0
2018-12-08T06:09:47.566Z,0
2018-12-08T06:10:55.684Z,0
2018-12-08T06:12:03.688Z,0
2018-12-08T06:13:11.729Z,0
2018-12-08T06:14:19.805Z,0
2018-12-08T06:15:28.402Z,0
2018-12-08T06:16:35.912Z,0
2018-12-08T06:17:43.987Z,0
2018-12-08T06:18:52.039Z,0
2018-12-08T06:20:00.141Z,0
2018-12-08T06:21:08.385Z,0
2018-12-08T06:22:16.232Z,0
2018-12-08T06:23:24.276Z,0
2018-12-08T06:24:32.310Z,0
2018-12-08T06:25:40.381Z,0
2018-12-08T06:26:48.477Z,0
2018-12-08T06:27:56.502Z,0
2018-12-08T06:29:04.557Z,4
2018-12-08T06:30:12.733Z,4
2018-12-08T06:31:20.667Z,0
2018-12-08T06:32:28.746Z,4
2018-12-08T06:33:36.799Z,4
2018-12-08T06:34:44.843Z,8
2018-12-08T06:35:52.914Z,4
2018-12-08T06:37:01.143Z,4
2018-12-08T06:38:09.029Z,8
2018-12-08T06:39:17.414Z,4
2018-12-08T06:40:29.112Z,4
2018-12-08T06:41:33.192Z,12
2018-12-08T06:42:41.343Z,16
2018-12-08T06:43:49.325Z,12
2018-12-08T06:44:57.388Z,16
2018-12-08T06:46:05.520Z,16
2018-12-08T06:47:13.489Z,12
2018-12-08T06:48:21.526Z,16
2018-12-08T06:49:29.606Z,20
2018-12-08T06:50:37.665Z,28
2018-12-08T06:51:46.365Z,28
2018-12-08T06:52:53.773Z,40
2018-12-08T06:54:01.856Z,44
2018-12-08T06:55:09.889Z,52
2018-12-08T06:56:17.944Z,56
2018-12-08T06:57:26.026Z,64
2018-12-08T06:58:34.073Z,92
2018-12-08T06:59:42.170Z,100
2018-12-08T07:00:50.179Z,112
2018-12-08T07:01:58.235Z,140
2018-12-08T07:03:06.300Z,172
2018-12-08T07:04:14.358Z,152
2018-12-08T07:05:22.425Z,156
2018-12-08T07:06:30.487Z,228
2018-12-08T07:07:38.544Z,196
2018-12-08T07:08:46.583Z,208
2018-12-08T07:09:54.730Z,188
2018-12-08T07:11:02.701Z,216
2018-12-08T07:12:10.745Z,268
2018-12-08T07:13:18.831Z,320
2018-12-08T07:14:26.885Z,324
2018-12-08T07:15:34.949Z,336
2018-12-08T07:16:43.003Z,392
2018-12-08T07:17:51.033Z,488
2018-12-08T07:18:59.119Z,504
2018-12-08T07:20:07.170Z,536
2018-12-08T07:21:15.229Z,584
2018-12-08T07:22:23.291Z,600
2018-12-08T07:23:31.328Z,644
2018-12-08T07:24:39.403Z,704
2018-12-08T07:25:47.458Z,748
2018-12-08T07:26:55.523Z,692
2018-12-08T07:28:03.587Z,912
2018-12-08T07:29:11.661Z,1036
2018-12-08T07:30:20.279Z,1236
2018-12-08T07:31:27.762Z,1468
2018-12-08T07:32:38.888Z,1352
2018-12-08T07:33:43.872Z,1424
2018-12-08T07:34:51.933Z,1312
2018-12-08T07:35:59.985Z,1444
2018-12-08T07:37:08.046Z,1404
2018-12-08T07:38:16.105Z,1492
2018-12-08T07:39:24.168Z,1572
2018-12-08T07:40:32.220Z,1500
2018-12-08T07:41:40.283Z,1520
2018-12-08T07:42:48.343Z,1448
2018-12-08T07:43:56.388Z,2260
2018-12-08T07:45:04.459Z,2548
2018-12-08T07:46:12.504Z,2568
2018-12-08T07:47:20.571Z,2660
2018-12-08T07:48:28.637Z,2728
2018-12-08T07:49:36.685Z,2400
2018-12-08T07:50:44.806Z,2264
2018-12-08T07:51:52.810Z,2000
2018-12-08T07:53:01.523Z,2000
2018-12-08T07:54:08.929Z,2064
2018-12-08T07:55:16.975Z,2072
2018-12-08T07:56:25.772Z,1988
2018-12-08T07:57:33.094Z,1888
2018-12-08T07:58:41.839Z,1808
2018-12-08T07:59:49.219Z,1888
2018-12-08T08:00:57.283Z,1800
2018-12-08T08:02:06.003Z,1788
2018-12-08T08:03:13.488Z,1936
2018-12-08T08:04:21.456Z,1904
2018-12-08T08:05:29.531Z,1936
2018-12-08T08:06:37.566Z,1628
2018-12-08T08:07:45.619Z,1372
2018-12-08T08:08:53.847Z,1220
2018-12-08T08:10:01.730Z,1272
2018-12-08T08:11:09.870Z,1404
2018-12-08T08:12:17.910Z,1796
2018-12-08T08:13:25.918Z,1912
2018-12-08T08:14:33.983Z,1488
2018-12-08T08:15:42.990Z,1608
2018-12-08T08:16:50.985Z,1360
2018-12-08T08:17:59.201Z,1404
2018-12-08T08:19:10.376Z,1164
2018-12-08T08:21:35.336Z,1400
2018-12-08T08:22:42.782Z,1140
2018-12-08T08:23:50.751Z,1080
2018-12-08T08:25:25.303Z,976
2018-12-08T08:26:33.359Z,1332
2018-12-08T08:27:41.386Z,1828
2018-12-08T08:28:50.192Z,1912
2018-12-08T08:29:57.869Z,1928
2018-12-08T08:31:06.579Z,2144
2018-12-08T08:32:14.418Z,2428
2018-12-08T08:33:21.726Z,2348
2018-12-08T08:34:29.751Z,3024
2018-12-08T08:35:38.652Z,3236
2018-12-08T08:36:45.881Z,3128
2018-12-08T08:37:53.948Z,3468
2018-12-08T08:39:01.996Z,3332
2018-12-08T08:40:10.787Z,3472
2018-12-08T08:41:18.797Z,3608
2018-12-08T08:42:26.183Z,3444
2018-12-08T08:43:34.223Z,3484
2018-12-08T08:44:42.309Z,3260
2018-12-08T08:45:50.343Z,3220
2018-12-08T08:46:58.413Z,3372
2018-12-08T08:48:06.479Z,3448
2018-12-08T08:49:15.126Z,3304
2018-12-08T08:50:22.589Z,3228
2018-12-08T08:51:30.876Z,3232
2018-12-08T08:52:38.705Z,3252
2018-12-08T08:53:46.772Z,3140
2018-12-08T08:54:54.816Z,3372
2018-12-08T08:56:02.886Z,2688
2018-12-08T08:57:10.918Z,2596
2018-12-08T08:58:18.997Z,2652
2018-12-08T08:59:27.167Z,2548
2018-12-08T09:00:35.264Z,2444
2018-12-08T09:01:43.164Z,2300
2018-12-08T09:02:51.503Z,2592
2018-12-08T09:03:59.283Z,2608
2018-12-08T09:05:07.348Z,2628
2018-12-08T09:06:15.417Z,2408
2018-12-08T09:07:23.476Z,2628
2018-12-08T09:08:31.493Z,2564
2018-12-08T09:09:39.575Z,2560
2018-12-08T09:13:23.561Z,3292
2018-12-08T09:14:31.617Z,3180
2018-12-08T09:15:39.672Z,2900
2018-12-08T09:16:47.723Z,3184
2018-12-08T09:17:55.792Z,2888
2018-12-08T09:19:03.851Z,3036
2018-12-08T09:20:11.918Z,2760
2018-12-08T09:21:19.966Z,2624
2018-12-08T09:22:28.058Z,3056
2018-12-08T09:23:36.085Z,3636
2018-12-08T09:24:44.133Z,3948
2018-12-08T09:25:52.192Z,4036
2018-12-08T09:27:00.244Z,4088
2018-12-08T09:28:08.318Z,4088
2018-12-08T09:29:16.378Z,3912
2018-12-08T09:30:24.443Z,4892
2018-12-08T09:31:32.503Z,4512
2018-12-08T09:34:57.251Z,5156
2018-12-08T09:36:04.722Z,4908
2018-12-08T09:37:12.780Z,4760
2018-12-08T09:38:20.823Z,5072
2018-12-08T09:39:28.909Z,5784
2018-12-08T09:40:36.976Z,5568
2018-12-08T09:41:45.018Z,5232
2018-12-08T09:42:53.073Z,5100
2018-12-08T09:44:01.231Z,5036
2018-12-08T09:45:09.193Z,4748
2018-12-08T09:46:17.240Z,4648
2018-12-08T09:47:25.295Z,4880
2018-12-08T09:48:33.392Z,4520
2018-12-08T09:49:41.425Z,4684
2018-12-08T09:50:49.499Z,4460
2018-12-08T09:51:57.545Z,4008
2018-12-08T09:53:05.582Z,3532
2018-12-08T09:54:13.686Z,3208
2018-12-08T09:55:21.729Z,3152
2018-12-08T09:56:29.786Z,3188
2018-12-08T09:57:37.821Z,2656
2018-12-08T09:58:45.893Z,2400
2018-12-08T09:59:53.961Z,2432
2018-12-08T10:01:02.029Z,2664
2018-12-08T10:02:10.077Z,2920
2018-12-08T10:03:18.147Z,3256
2018-12-08T10:04:26.205Z,3236
2018-12-08T10:05:34.247Z,3816
2018-12-08T10:06:42.329Z,4028
2018-12-08T10:07:50.722Z,4176
2018-12-08T10:08:58.423Z,4728
2018-12-08T10:10:06.616Z,4720
2018-12-08T10:11:14.572Z,4768
2018-12-08T10:12:23.065Z,6144
2018-12-08T10:13:30.760Z,6096
2018-12-08T10:14:38.754Z,5668
2018-12-08T10:15:46.801Z,5508
2018-12-08T10:16:54.848Z,4840
2018-12-08T10:18:02.922Z,4784
2018-12-08T10:19:10.978Z,5228
2018-12-08T10:20:19.022Z,4176
2018-12-08T10:21:27.092Z,4712
2018-12-08T10:22:35.138Z,5340
2018-12-08T10:23:43.227Z,4092
2018-12-08T10:24:51.295Z,4596
2018-12-08T10:25:59.330Z,4544
2018-12-08T10:27:07.397Z,4780
2018-12-08T10:28:15.522Z,5408
2018-12-08T10:29:23.525Z,5248
2018-12-08T10:30:31.577Z,6112
2018-12-08T10:31:39.623Z,5536
2018-12-08T10:32:47.703Z,5672
2018-12-08T10:33:55.736Z,4304
2018-12-08T10:35:03.812Z,6308
2018-12-08T10:36:11.878Z,4936
2018-12-08T10:37:19.927Z,3488
2018-12-08T10:38:28.003Z,3208
2018-12-08T10:39:36.049Z,3044
2018-12-08T10:40:44.119Z,3052
2018-12-08T10:41:52.165Z,4060
2018-12-08T10:43:00.226Z,3392
2018-12-08T10:44:08.320Z,4456
2018-12-08T10:45:16.344Z,4176
2018-12-08T10:46:24.414Z,4704
2018-12-08T10:47:32.472Z,4540
2018-12-08T10:48:40.525Z,4108
2018-12-08T10:49:48.597Z,4004
2018-12-08T10:50:56.635Z,3384
2018-12-08T10:52:04.723Z,2516
2018-12-08T10:53:12.761Z,2292
2018-12-08T10:54:20.823Z,2900
2018-12-08T10:55:28.879Z,2756
2018-12-08T10:56:36.933Z,2376
2018-12-08T10:57:44.989Z,2456
2018-12-08T10:58:53.073Z,2436
2018-12-08T11:00:01.116Z,2396
2018-12-08T11:01:09.166Z,1940
2018-12-08T11:02:17.243Z,2456
2018-12-08T11:03:25.273Z,1576
2018-12-08T11:04:33.369Z,1812
2018-12-08T11:05:41.414Z,1932
2018-12-08T11:06:49.472Z,1572
2018-12-08T11:07:57.546Z,2124
2018-12-08T11:09:05.617Z,1692
2018-12-08T11:10:13.653Z,1836
2018-12-08T11:11:21.733Z,1956
2018-12-08T11:12:29.781Z,2192
2018-12-08T11:13:37.815Z,2668
2018-12-08T11:14:45.886Z,1716
2018-12-08T11:15:53.944Z,2048
2018-12-08T11:17:02.008Z,2080
2018-12-08T11:18:10.066Z,3260
2018-12-08T11:19:18.140Z,3680
2018-12-08T11:20:26.174Z,3328
2018-12-08T11:21:34.244Z,3736
2018-12-08T11:22:42.316Z,3924
2018-12-08T11:23:50.862Z,3584
2018-12-08T11:24:58.416Z,3352
2018-12-08T11:26:06.543Z,3052
2018-12-08T11:27:14.553Z,3540
2018-12-08T11:28:22.605Z,4076
2018-12-08T11:29:30.672Z,4932
2018-12-08T11:30:38.714Z,4648
2018-12-08T11:31:46.779Z,4708
2018-12-08T11:32:54.829Z,4424
2018-12-08T11:34:02.896Z,3564
2018-12-08T11:35:10.958Z,2908
2018-12-08T11:36:19.003Z,3024
2018-12-08T11:37:27.082Z,4040
2018-12-08T11:38:35.109Z,5248
2018-12-08T11:39:43.191Z,5396
2018-12-08T11:40:51.250Z,3256
2018-12-08T11:41:59.406Z,2368
2018-12-08T11:43:07.372Z,1960
2018-12-08T11:44:15.414Z,1844
2018-12-08T11:45:23.494Z,2156
2018-12-08T11:46:31.553Z,1960
2018-12-08T11:47:39.611Z,2340
2018-12-08T11:48:47.747Z,2124
2018-12-08T11:49:55.709Z,2068
2018-12-08T11:51:03.774Z,1560
2018-12-08T11:52:11.842Z,1400
2018-12-08T11:53:19.901Z,1588
2018-12-08T11:54:27.953Z,1624
2018-12-08T11:55:36.014Z,1692
2018-12-08T11:56:44.075Z,1592
2018-12-08T11:57:52.126Z,1596
2018-12-08T11:59:00.191Z,2024
2018-12-08T12:00:08.338Z,1860
2018-12-08T12:01:16.327Z,1712
2018-12-08T12:02:24.375Z,1632
2018-12-08T12:03:32.511Z,1920
2018-12-08T12:04:40.512Z,1940
2018-12-08T12:05:48.544Z,1712
2018-12-08T12:06:56.625Z,1896
2018-12-08T12:08:04.668Z,2232
2018-12-08T12:09:12.725Z,2192
2018-12-08T12:10:20.782Z,2364
2018-12-08T12:11:28.849Z,2236
2018-12-08T12:12:36.898Z,1916
2018-12-08T12:13:44.939Z,2040
2018-12-08T12:14:53.020Z,2332
2018-12-08T12:16:01.082Z,1652
2018-12-08T12:17:09.133Z,1752
2018-12-08T12:18:17.202Z,1992
2018-12-08T12:19:25.245Z,1756
2018-12-08T12:20:33.320Z,1588
2018-12-08T12:21:41.385Z,1276
2018-12-08T12:22:49.422Z,1496
2018-12-08T12:23:57.498Z,1532
2018-12-08T12:25:05.534Z,1808
2018-12-08T12:26:13.604Z,1732
2018-12-08T12:27:21.684Z,1536
2018-12-08T12:28:29.719Z,2052
2018-12-08T12:29:37.790Z,1600
2018-12-08T12:30:45.817Z,1600
2018-12-08T12:31:53.904Z,1784
2018-12-08T12:33:01.969Z,1552
2018-12-08T12:34:10.012Z,1716
2018-12-08T12:35:18.147Z,1672
2018-12-08T12:36:26.123Z,1588
2018-12-08T12:37:34.204Z,1728
2018-12-08T12:38:42.251Z,1556
2018-12-08T12:39:50.313Z,2028
2018-12-08T12:40:58.384Z,1700
2018-12-08T12:42:06.427Z,2432
2018-12-08T12:43:14.501Z,1928
2018-12-08T12:44:22.579Z,1428
2018-12-08T12:45:30.615Z,1848
2018-12-08T12:46:38.680Z,1740
2018-12-08T12:47:46.734Z,1436
2018-12-08T12:48:54.781Z,1800
2018-12-08T12:50:02.827Z,1932
2018-12-08T12:51:11.373Z,2956
2018-12-08T12:52:18.965Z,2160
2018-12-08T12:53:27.021Z,2752
2018-12-08T12:54:35.050Z,2388
2018-12-08T12:55:43.137Z,1920
2018-12-08T12:56:51.203Z,2520
2018-12-08T12:57:59.258Z,1600
2018-12-08T12:59:07.319Z,2420
2018-12-08T13:00:15.346Z,2176
2018-12-08T13:01:23.416Z,2008
2018-12-08T13:02:31.483Z,2192
2018-12-08T13:03:39.553Z,2528
2018-12-08T13:04:47.616Z,2236
2018-12-08T13:05:55.652Z,2036
2018-12-08T13:07:03.724Z,1556
2018-12-08T13:08:11.794Z,2124
2018-12-08T13:09:19.830Z,1672
2018-12-08T13:10:27.906Z,1652
2018-12-08T13:11:35.966Z,2096
2018-12-08T13:12:44.030Z,1356
2018-12-08T13:13:52.178Z,1656
2018-12-08T13:15:00.148Z,1380
2018-12-08T13:16:08.198Z,1912
2018-12-08T13:17:16.262Z,1516
2018-12-08T13:18:24.321Z,2220
2018-12-08T13:19:32.396Z,1500
2018-12-08T13:20:40.436Z,1500
2018-12-08T13:21:48.498Z,1312
2018-12-08T13:22:56.557Z,1360
2018-12-08T13:24:04.632Z,1128
2018-12-08T13:25:12.677Z,888
2018-12-08T13:26:20.737Z,1500
2018-12-08T13:27:28.794Z,1376
2018-12-08T13:28:36.843Z,1092
2018-12-08T13:29:44.898Z,1032
2018-12-08T13:30:52.978Z,996
2018-12-08T13:32:01.042Z,1444
2018-12-08T13:33:09.082Z,1044
2018-12-08T13:34:17.154Z,964
2018-12-08T13:35:25.216Z,1060
2018-12-08T13:36:33.279Z,1072
2018-12-08T13:37:41.324Z,1088
2018-12-08T13:38:49.391Z,912
2018-12-08T13:39:57.437Z,1084
2018-12-08T13:41:05.478Z,1164
2018-12-08T13:42:13.563Z,1424
2018-12-08T13:43:21.634Z,1532
2018-12-08T13:44:29.766Z,1416
2018-12-08T13:45:38.213Z,1260
2018-12-08T13:46:45.791Z,1336
2018-12-08T13:47:53.855Z,1048
2018-12-08T13:49:01.914Z,1140
2018-12-08T13:50:09.964Z,952
2018-12-08T13:51:18.025Z,844
2018-12-08T13:52:26.103Z,972
2018-12-08T13:53:36.779Z,832
2018-12-08T13:54:42.207Z,792
2018-12-08T13:55:50.266Z,916
2018-12-08T13:56:58.329Z,748
2018-12-08T13:58:06.386Z,888
2018-12-08T13:59:14.433Z,972
2018-12-08T14:00:22.507Z,900
2018-12-08T14:01:30.561Z,864
2018-12-08T14:02:38.619Z,832
2018-12-08T14:03:46.693Z,788
2018-12-08T14:04:54.729Z,648
2018-12-08T14:06:02.803Z,392
2018-12-08T14:07:10.863Z,408
2018-12-08T14:08:18.924Z,452
2018-12-08T14:09:28.831Z,316
2018-12-08T14:10:35.009Z,384
2018-12-08T14:11:43.100Z,420
2018-12-08T14:12:51.177Z,484
2018-12-08T14:13:59.222Z,580
2018-12-08T14:15:07.280Z,632
2018-12-08T14:16:15.312Z,856
2018-12-08T14:17:23.402Z,712
2018-12-08T14:18:31.448Z,724
2018-12-08T14:19:39.521Z,612
2018-12-08T14:20:47.567Z,692
2018-12-08T14:21:55.638Z,628
2018-12-08T14:23:03.702Z,516
2018-12-08T14:24:11.746Z,456
2018-12-08T14:25:19.824Z,400
2018-12-08T14:26:27.874Z,376
2018-12-08T14:27:35.927Z,348
2018-12-08T14:28:43.983Z,320
2018-12-08T14:29:52.042Z,396
2018-12-08T14:31:00.190Z,392
2018-12-08T14:32:08.179Z,404
2018-12-08T14:33:16.230Z,504
2018-12-08T14:34:24.278Z,572
2018-12-08T14:35:32.340Z,492
2018-12-08T14:36:40.415Z,396
2018-12-08T14:37:48.452Z,504
2018-12-08T14:38:57.574Z,532
2018-12-08T14:40:04.574Z,528
2018-12-08T14:41:12.646Z,604
2018-12-08T14:42:20.722Z,528
2018-12-08T14:43:28.754Z,456
2018-12-08T14:44:36.816Z,456
2018-12-08T14:45:44.857Z,424
2018-12-08T14:46:52.946Z,480
2018-12-08T14:48:00.991Z,568
2018-12-08T14:49:09.054Z,488
2018-12-08T14:50:17.108Z,644
2018-12-08T14:51:25.149Z,496
2018-12-08T14:52:33.220Z,552
2018-12-08T14:53:41.296Z,528
2018-12-08T14:54:49.346Z,392
2018-12-08T14:55:57.394Z,452
2018-12-08T14:57:05.463Z,500
2018-12-08T14:58:13.523Z,436
2018-12-08T14:59:21.591Z,332
2018-12-08T15:00:29.676Z,372
2018-12-08T15:01:37.778Z,340
2018-12-08T15:02:45.741Z,356
2018-12-08T15:03:53.817Z,300
2018-12-08T15:05:01.879Z,312
2018-12-08T15:06:09.947Z,320
2018-12-08T15:07:17.996Z,396
2018-12-08T15:08:26.060Z,428
2018-12-08T15:09:34.098Z,372
2018-12-08T15:10:42.164Z,380
2018-12-08T15:11:50.598Z,276
2018-12-08T15:12:58.298Z,228
2018-12-08T15:14:06.360Z,176
2018-12-08T15:15:14.403Z,212
2018-12-08T15:16:22.476Z,188
2018-12-08T15:17:30.518Z,148
2018-12-08T15:18:38.586Z,124
2018-12-08T15:19:46.657Z,120
2018-12-08T15:20:54.718Z,100
2018-12-08T15:22:02.762Z,112
2018-12-08T15:23:10.821Z,116
2018-12-08T15:24:18.892Z,120
2018-12-08T15:25:26.944Z,108
2018-12-08T15:26:34.986Z,112
2018-12-08T15:27:43.062Z,104
2018-12-08T15:28:51.125Z,80
2018-12-08T15:29:59.193Z,88
2018-12-08T15:31:07.239Z,76
2018-12-08T15:32:15.277Z,64
2018-12-08T15:33:23.356Z,60
2018-12-08T15:34:31.419Z,48
2018-12-08T15:35:39.485Z,48
2018-12-08T15:36:47.536Z,36
2018-12-08T15:37:55.574Z,36
2018-12-08T15:39:03.647Z,24
2018-12-08T15:40:11.713Z,28
2018-12-08T15:41:19.785Z,24
2018-12-08T15:42:27.831Z,16
2018-12-08T15:43:35.880Z,16
2018-12-08T15:44:44.126Z,16
2018-12-08T15:45:52.010Z,12
2018-12-08T15:47:00.073Z,8
2018-12-08T15:48:08.122Z,8
2018-12-08T15:49:16.170Z,8
2018-12-08T15:50:24.239Z,4
2018-12-08T15:51:32.306Z,4
2018-12-08T15:52:40.347Z,4
2018-12-08T15:53:48.416Z,4
2018-12-08T15:54:56.473Z,4
2018-12-08T15:56:04.535Z,0
2018-12-08T15:57:12.595Z,4
2018-12-08T15:58:20.669Z,0
2018-12-08T15:59:28.718Z,0
2018-12-08T16:00:36.772Z,0